Time;durP1;ratioP1;P1;durP2;ratioP2;P2;SDS_P1;SDS_P2;PMS_P1;PMS_P2;Temp;Humidity;BMP_temperature;BMP_pressure;BME280_temperature;BME280_humidity;BME280_pressure;Samples;Min_cycle;Max_cycle;Signal;HPM_P1;HPM_P2
2021/12/29 00:01:51;;;;;;;401.17;26.63;;;6.80;99.90;;;;;;4989907;28;20421;-68
2021/12/29 00:04:17;;;;;;;344.63;26.95;;;6.80;99.90;;;;;;4991776;28;20077;-69
2021/12/29 00:06:43;;;;;;;339.55;26.05;;;6.80;99.90;;;;;;4991922;28;20414;-68
2021/12/29 00:09:09;;;;;;;384.27;26.40;;;6.80;99.90;;;;;;5010480;28;20125;-68
2021/12/29 00:11:38;;;;;;;336.85;25.92;;;6.80;99.90;;;;;;4994162;28;20514;-68
2021/12/29 00:14:05;;;;;;;327.90;23.52;;;6.80;99.90;;;;;;4993529;28;20049;-69
2021/12/29 00:16:34;;;;;;;257.95;22.63;;;6.80;99.90;;;;;;4993049;28;20128;-68
2021/12/29 00:19:04;;;;;;;277.23;24.98;;;6.80;99.90;;;;;;4993651;28;20042;-68
2021/12/29 00:21:32;;;;;;;220.90;22.55;;;6.80;99.90;;;;;;4992935;28;20172;-69
2021/12/29 00:23:59;;;;;;;245.32;24.85;;;6.80;99.90;;;;;;5007859;28;20041;-68
2021/12/29 00:26:26;;;;;;;240.60;25.75;;;6.80;99.90;;;;;;5008704;28;20038;-68
2021/12/29 00:28:53;;;;;;;285.63;28.00;;;6.80;99.90;;;;;;5009050;28;20544;-68
2021/12/29 00:31:18;;;;;;;260.20;25.67;;;6.80;99.90;;;;;;5008685;28;20053;-68
2021/12/29 00:33:44;;;;;;;238.25;25.77;;;6.80;99.90;;;;;;5009692;28;20425;-68
2021/12/29 00:36:10;;;;;;;328.25;27.65;;;6.80;99.90;;;;;;5010216;28;20401;-68
2021/12/29 00:38:36;;;;;;;372.95;31.42;;;6.80;99.90;;;;;;5006889;28;20556;-68
2021/12/29 00:41:02;;;;;;;256.45;26.58;;;6.80;99.90;;;;;;5007782;28;20057;-68
2021/12/29 00:43:27;;;;;;;328.65;30.17;;;6.90;99.90;;;;;;5009771;28;20049;-68
2021/12/29 00:45:53;;;;;;;323.83;26.38;;;6.80;99.90;;;;;;5010199;28;20061;-68
2021/12/29 00:48:20;;;;;;;254.98;20.33;;;6.90;99.90;;;;;;5009548;28;20057;-68
2021/12/29 00:50:46;;;;;;;240.40;19.35;;;6.90;99.90;;;;;;5010502;28;20129;-68
2021/12/29 00:53:12;;;;;;;211.85;18.08;;;6.90;99.90;;;;;;5001390;28;20466;-68
2021/12/29 00:55:38;;;;;;;212.20;22.52;;;6.90;99.90;;;;;;5006765;28;20106;-68
2021/12/29 00:58:07;;;;;;;235.20;30.58;;;6.90;99.90;;;;;;5009969;28;20052;-68
2021/12/29 01:00:37;;;;;;;201.30;21.38;;;6.90;99.90;;;;;;5008583;28;20053;-68
2021/12/29 01:03:04;;;;;;;216.73;19.02;;;7.00;99.90;;;;;;5008640;28;20124;-68
2021/12/29 01:05:29;;;;;;;218.43;20.83;;;7.00;99.90;;;;;;5006222;28;20501;-68
2021/12/29 01:07:55;;;;;;;234.57;20.23;;;7.00;99.90;;;;;;5016789;28;20077;-68
2021/12/29 01:10:20;;;;;;;217.80;20.85;;;7.00;99.90;;;;;;5005749;28;20120;-68
2021/12/29 01:12:54;;;;;;;198.63;18.73;;;7.00;99.90;;;;;;5008117;28;20042;-68
2021/12/29 01:15:25;;;;;;;152.65;19.73;;;7.10;99.90;;;;;;5022566;28;20069;-68
2021/12/29 01:17:53;;;;;;;123.47;17.85;;;7.10;99.90;;;;;;5008642;28;20037;-68
2021/12/29 01:20:19;;;;;;;107.47;21.77;;;7.10;99.90;;;;;;4997860;28;20132;-68
2021/12/29 01:22:46;;;;;;;113.55;23.23;;;7.20;99.90;;;;;;5015872;28;20509;-68
2021/12/29 01:25:11;;;;;;;96.32;20.75;;;7.20;99.90;;;;;;4991342;28;20038;-68
2021/12/29 01:27:38;;;;;;;106.03;24.13;;;7.30;99.90;;;;;;4992102;28;20048;-68
2021/12/29 01:30:09;;;;;;;109.38;23.95;;;7.30;99.90;;;;;;4991546;28;20045;-68
2021/12/29 01:32:35;;;;;;;100.30;25.85;;;7.30;99.90;;;;;;4996068;28;21294;-68
2021/12/29 01:35:01;;;;;;;95.68;24.27;;;7.40;99.90;;;;;;4993554;28;20048;-70
2021/12/29 01:37:26;;;;;;;86.10;24.70;;;7.40;99.90;;;;;;4990709;28;20049;-68
2021/12/29 01:39:52;;;;;;;101.47;27.27;;;7.40;99.90;;;;;;4987420;28;20385;-68
2021/12/29 01:42:18;;;;;;;76.85;23.77;;;7.40;99.90;;;;;;4986474;28;20053;-68
2021/12/29 01:44:43;;;;;;;71.57;23.58;;;7.40;99.90;;;;;;4991555;28;20746;-68
2021/12/29 01:47:09;;;;;;;58.65;22.08;;;7.40;99.90;;;;;;4992311;28;20037;-68
2021/12/29 01:49:35;;;;;;;69.60;24.40;;;7.40;99.90;;;;;;4987232;28;20033;-68
2021/12/29 01:52:23;;;;;;;70.00;23.60;;;7.40;99.90;;;;;;4998294;28;20501;-68
2021/12/29 01:54:48;;;;;;;71.32;23.48;;;7.40;99.90;;;;;;4993626;28;20115;-68
2021/12/29 01:57:14;;;;;;;64.07;21.00;;;7.40;99.90;;;;;;4995413;28;20061;-68
2021/12/29 01:59:40;;;;;;;58.85;20.15;;;7.40;99.90;;;;;;5014070;28;20393;-68
2021/12/29 02:02:07;;;;;;;53.67;16.48;;;7.40;99.90;;;;;;5010807;28;20042;-68
2021/12/29 02:04:34;;;;;;;64.95;19.55;;;7.40;99.90;;;;;;5017678;28;20049;-68
2021/12/29 02:07:00;;;;;;;41.13;15.57;;;7.40;99.90;;;;;;4996759;28;20041;-68
2021/12/29 02:09:26;;;;;;;40.88;15.18;;;7.40;99.90;;;;;;4991164;28;20045;-67
2021/12/29 02:11:52;;;;;;;46.05;15.25;;;7.40;99.90;;;;;;5012064;28;20444;-68
2021/12/29 02:14:18;;;;;;;38.03;12.52;;;7.40;99.90;;;;;;5005800;28;20050;-67
2021/12/29 02:16:44;;;;;;;39.90;12.63;;;7.40;99.90;;;;;;5015449;28;20053;-68
2021/12/29 02:19:12;;;;;;;40.88;12.98;;;7.40;99.90;;;;;;4990742;28;20096;-67
2021/12/29 02:21:42;;;;;;;34.30;11.48;;;7.40;99.90;;;;;;4998947;28;20041;-67
2021/12/29 02:26:36;;;;;;;30.23;11.35;;;7.40;99.90;;;;;;5026343;28;20045;-68
2021/12/29 02:29:03;;;;;;;26.52;9.88;;;7.50;99.90;;;;;;5009274;28;20037;-68
2021/12/29 02:31:30;;;;;;;32.65;10.73;;;7.50;99.90;;;;;;5013695;28;20079;-68
2021/12/29 02:33:57;;;;;;;36.35;12.00;;;7.50;99.90;;;;;;5009863;28;20609;-69
2021/12/29 02:36:25;;;;;;;36.47;12.55;;;7.50;99.90;;;;;;5005759;28;20065;-68
2021/12/29 02:38:54;;;;;;;39.08;13.55;;;7.50;99.90;;;;;;5008515;28;20095;-68
2021/12/29 02:41:22;;;;;;;38.85;12.60;;;7.50;99.90;;;;;;5019165;28;20061;-68
2021/12/29 02:43:57;;;;;;;38.90;13.27;;;7.50;99.90;;;;;;5009661;28;20050;-68
2021/12/29 02:46:23;;;;;;;41.70;13.57;;;7.50;99.90;;;;;;5002144;28;20091;-68
2021/12/29 02:48:58;;;;;;;38.63;12.40;;;7.50;99.90;;;;;;5004470;28;20046;-68
2021/12/29 02:51:23;;;;;;;35.88;13.63;;;7.50;99.90;;;;;;5006751;28;20052;-68
2021/12/29 02:53:49;;;;;;;43.13;13.30;;;7.50;99.90;;;;;;5005170;28;20038;-68
2021/12/29 02:56:15;;;;;;;38.75;13.65;;;7.50;99.90;;;;;;5006066;28;20131;-68
2021/12/29 02:58:40;;;;;;;43.38;14.20;;;7.40;99.90;;;;;;5005358;28;20509;-68
2021/12/29 03:01:11;;;;;;;37.97;13.25;;;7.40;99.90;;;;;;5006281;28;20476;-68
2021/12/29 03:03:37;;;;;;;41.83;13.73;;;7.40;99.90;;;;;;5006016;28;20049;-68
2021/12/29 03:06:07;;;;;;;40.42;12.80;;;7.40;99.90;;;;;;4999973;28;20046;-68
2021/12/29 03:08:32;;;;;;;38.90;12.60;;;7.40;99.90;;;;;;5006303;28;20063;-68
2021/12/29 03:10:59;;;;;;;44.28;12.65;;;7.40;99.90;;;;;;5008026;28;20132;-68
2021/12/29 03:13:27;;;;;;;47.85;12.90;;;7.40;99.90;;;;;;5005752;28;20046;-68
2021/12/29 03:15:53;;;;;;;44.15;12.32;;;7.30;99.90;;;;;;5004614;28;20121;-68
2021/12/29 03:18:19;;;;;;;48.45;12.25;;;7.30;99.90;;;;;;5011769;28;20188;-68
2021/12/29 03:20:45;;;;;;;48.00;13.05;;;7.30;99.90;;;;;;5009341;28;20140;-68
2021/12/29 03:23:12;;;;;;;56.65;13.98;;;7.40;99.90;;;;;;5027524;28;20045;-68
2021/12/29 03:25:38;;;;;;;59.58;16.08;;;7.40;99.90;;;;;;5012783;28;20042;-68
2021/12/29 03:28:04;;;;;;;64.72;15.07;;;7.40;99.90;;;;;;5012184;28;20239;-68
2021/12/29 03:30:36;;;;;;;72.95;15.68;;;7.40;99.90;;;;;;5011853;28;20089;-68
2021/12/29 03:33:07;;;;;;;62.10;15.57;;;7.30;99.90;;;;;;5007212;28;20052;-68
2021/12/29 03:35:36;;;;;;;55.25;15.10;;;7.40;99.90;;;;;;5009863;28;20485;-68
2021/12/29 03:38:05;;;;;;;56.30;15.65;;;7.40;99.90;;;;;;5011590;28;20091;-69
2021/12/29 03:40:30;;;;;;;61.15;16.63;;;7.40;99.90;;;;;;5008945;28;20124;-68
2021/12/29 03:42:56;;;;;;;59.13;15.85;;;7.40;99.90;;;;;;5008077;28;20177;-68
2021/12/29 03:45:23;;;;;;;48.42;15.60;;;7.40;99.90;;;;;;5011135;28;20046;-68
2021/12/29 03:47:48;;;;;;;54.95;16.13;;;7.40;99.90;;;;;;5008089;28;20061;-68
2021/12/29 03:50:14;;;;;;;49.75;15.77;;;7.40;99.90;;;;;;5007435;28;20457;-67
2021/12/29 03:52:40;;;;;;;39.17;13.98;;;7.40;99.90;;;;;;5013243;28;20034;-68
2021/12/29 03:55:07;;;;;;;55.17;15.48;;;7.40;99.90;;;;;;5007120;28;20046;-68
2021/12/29 03:57:33;;;;;;;55.17;17.25;;;7.40;99.90;;;;;;5007874;28;20116;-68
2021/12/29 03:59:59;;;;;;;50.40;15.13;;;7.40;99.90;;;;;;5009594;28;20042;-68
2021/12/29 04:02:24;;;;;;;52.03;16.45;;;7.40;99.90;;;;;;5007328;28;20100;-68
2021/12/29 04:04:50;;;;;;;50.55;16.95;;;7.40;99.90;;;;;;5006618;28;20049;-68
2021/12/29 04:07:15;;;;;;;50.28;15.75;;;7.40;99.90;;;;;;5008045;28;20053;-68
2021/12/29 04:09:41;;;;;;;54.17;17.25;;;7.50;99.90;;;;;;5014992;28;20048;-68
2021/12/29 04:12:07;;;;;;;64.78;17.50;;;7.40;99.90;;;;;;5007280;28;20466;-68
2021/12/29 04:14:33;;;;;;;69.72;17.67;;;7.40;99.90;;;;;;5012412;28;20080;-68
2021/12/29 04:17:08;;;;;;;66.55;18.30;;;7.50;99.90;;;;;;5005263;28;20066;-68
2021/12/29 04:20:54;;;;;;;62.35;17.42;;;7.50;99.90;;;;;;5007455;28;20695;-68
2021/12/29 04:22:20;;;;;;;67.40;18.13;;;7.50;99.90;;;;;;5004152;28;20054;-69
2021/12/29 04:24:45;;;;;;;78.82;19.45;;;7.50;99.90;;;;;;4990767;28;20115;-68
2021/12/29 04:27:11;;;;;;;73.65;20.17;;;7.50;99.90;;;;;;4989258;28;20129;-68
2021/12/29 04:29:37;;;;;;;68.97;18.92;;;7.50;99.90;;;;;;4996329;28;20072;-68
2021/12/29 04:32:03;;;;;;;84.28;20.90;;;7.50;99.90;;;;;;4990942;28;20076;-69
2021/12/29 04:34:28;;;;;;;84.95;20.80;;;7.50;99.90;;;;;;5008092;28;20049;-68
2021/12/29 04:36:54;;;;;;;89.22;21.33;;;7.50;99.90;;;;;;4996788;28;20046;-68
2021/12/29 04:39:19;;;;;;;53.28;17.75;;;7.50;99.90;;;;;;4994265;28;20139;-68
2021/12/29 04:41:45;;;;;;;71.70;21.05;;;7.50;99.90;;;;;;4993179;28;20103;-68
2021/12/29 04:44:10;;;;;;;98.88;28.00;;;7.50;99.90;;;;;;4992914;28;20413;-68
2021/12/29 04:46:39;;;;;;;79.60;29.85;;;7.50;99.90;;;;;;4992475;28;20041;-68
2021/12/29 04:49:12;;;;;;;93.65;35.95;;;7.50;99.90;;;;;;4992967;28;20073;-68
2021/12/29 04:51:44;;;;;;;96.95;30.63;;;7.50;99.90;;;;;;5008615;28;20049;-68
2021/12/29 04:54:10;;;;;;;81.38;21.52;;;7.50;99.90;;;;;;4989288;28;20148;-69
2021/12/29 04:56:36;;;;;;;66.88;17.15;;;7.50;99.90;;;;;;4992478;28;20042;-68
2021/12/29 04:59:03;;;;;;;82.40;19.48;;;7.50;99.90;;;;;;5012657;28;20038;-68
2021/12/29 05:01:28;;;;;;;94.07;21.20;;;7.50;99.90;;;;;;4989843;28;20088;-68
2021/12/29 05:03:54;;;;;;;75.03;20.45;;;7.50;99.90;;;;;;5006520;28;20466;-68
2021/12/29 05:09:05;;;;;;;102.05;22.23;;;7.50;99.90;;;;;;4990657;28;20460;-68
2021/12/29 05:11:30;;;;;;;88.22;19.98;;;7.50;99.90;;;;;;4991523;28;20038;-68
2021/12/29 05:13:56;;;;;;;79.57;19.30;;;7.50;99.90;;;;;;4989367;28;20077;-68
2021/12/29 05:16:27;;;;;;;78.57;18.90;;;7.50;99.90;;;;;;4989006;28;20053;-68
2021/12/29 05:18:54;;;;;;;88.78;19.85;;;7.50;99.90;;;;;;5010023;28;20533;-68
2021/12/29 05:21:19;;;;;;;72.47;17.55;;;7.50;99.90;;;;;;5001938;28;20077;-68
2021/12/29 05:23:45;;;;;;;77.80;19.42;;;7.50;99.90;;;;;;5006536;28;20077;-68
2021/12/29 05:26:11;;;;;;;90.50;19.63;;;7.50;99.90;;;;;;4989223;28;20101;-68
2021/12/29 05:28:36;;;;;;;70.93;19.15;;;7.50;99.90;;;;;;4991009;28;20053;-69
2021/12/29 05:31:02;;;;;;;74.47;18.33;;;7.50;99.90;;;;;;5012590;28;20057;-69
2021/12/29 05:33:28;;;;;;;80.32;20.38;;;7.50;99.90;;;;;;4990342;28;20127;-68
2021/12/29 05:35:53;;;;;;;90.30;19.92;;;7.50;99.90;;;;;;5007971;28;20073;-68
2021/12/29 05:38:19;;;;;;;83.50;20.48;;;7.50;99.90;;;;;;4990699;28;20133;-68
2021/12/29 05:40:45;;;;;;;97.18;22.40;;;7.50;99.90;;;;;;4988920;28;20559;-68
2021/12/29 05:43:10;;;;;;;90.38;21.38;;;7.50;99.90;;;;;;4988211;28;20081;-67
2021/12/29 05:45:37;;;;;;;77.70;20.02;;;7.50;99.90;;;;;;5011407;28;20092;-68
2021/12/29 05:48:03;;;;;;;80.13;24.35;;;7.50;99.90;;;;;;5005388;28;20046;-68
2021/12/29 05:50:29;;;;;;;74.40;20.92;;;7.60;99.90;;;;;;4989212;28;20049;-68
2021/12/29 05:52:56;;;;;;;90.35;22.80;;;7.60;99.90;;;;;;5006166;28;20097;-68
2021/12/29 05:55:23;;;;;;;60.83;19.75;;;7.60;99.90;;;;;;5006155;28;20494;-69
2021/12/29 05:57:48;;;;;;;67.78;20.40;;;7.60;99.90;;;;;;4987421;28;20046;-68
2021/12/29 06:00:17;;;;;;;72.32;19.27;;;7.60;99.90;;;;;;4993195;28;20772;-68
2021/12/29 06:02:43;;;;;;;50.28;15.65;;;7.50;99.90;;;;;;4991338;28;20045;-68
2021/12/29 06:05:09;;;;;;;55.40;17.08;;;7.50;99.90;;;;;;4995865;28;20037;-68
2021/12/29 06:07:36;;;;;;;50.25;13.38;;;7.50;99.90;;;;;;5013878;28;20112;-68
2021/12/29 06:10:03;;;;;;;47.60;13.68;;;7.40;99.90;;;;;;5007433;28;20045;-68
2021/12/29 06:12:29;;;;;;;60.63;15.18;;;7.40;99.90;;;;;;4990789;28;20045;-68
2021/12/29 06:14:55;;;;;;;58.47;14.73;;;7.40;99.90;;;;;;4989043;28;20096;-67
2021/12/29 06:17:20;;;;;;;56.58;14.88;;;7.40;99.90;;;;;;4993999;28;20046;-68
2021/12/29 06:19:46;;;;;;;62.67;13.70;;;7.40;99.90;;;;;;4990746;28;20049;-68
2021/12/29 06:22:12;;;;;;;80.57;15.90;;;7.40;99.90;;;;;;4987648;28;20053;-68
2021/12/29 06:24:39;;;;;;;70.85;13.57;;;7.40;99.90;;;;;;4985294;28;20045;-68
2021/12/29 06:27:05;;;;;;;72.63;15.18;;;7.40;99.90;;;;;;4990589;28;20052;-68
2021/12/29 06:29:31;;;;;;;92.30;17.67;;;7.40;99.90;;;;;;4994221;28;20042;-67
2021/12/29 06:31:57;;;;;;;98.35;18.75;;;7.40;99.90;;;;;;5008742;28;20548;-68
2021/12/29 06:34:23;;;;;;;118.97;19.77;;;7.40;99.90;;;;;;4988721;28;20812;-67
2021/12/29 06:36:48;;;;;;;164.40;20.60;;;7.50;99.90;;;;;;4994478;28;20069;-71
2021/12/29 06:39:14;;;;;;;154.70;20.33;;;7.50;99.90;;;;;;4991724;28;20496;-67
2021/12/29 06:41:40;;;;;;;141.55;18.77;;;7.50;99.90;;;;;;5008274;28;20042;-68
2021/12/29 06:44:06;;;;;;;146.63;18.55;;;7.50;99.90;;;;;;5014535;28;20052;-69
2021/12/29 06:46:32;;;;;;;166.57;20.88;;;7.50;99.90;;;;;;5011571;28;20053;-68
2021/12/29 06:48:58;;;;;;;136.25;17.73;;;7.50;99.90;;;;;;4992604;28;20046;-68
2021/12/29 06:51:23;;;;;;;139.90;18.85;;;7.50;99.90;;;;;;5010894;28;20042;-69
2021/12/29 06:53:49;;;;;;;175.75;20.38;;;7.50;99.90;;;;;;5001470;28;21386;-68
2021/12/29 06:56:14;;;;;;;133.10;18.40;;;7.50;99.90;;;;;;4993880;28;20046;-68
2021/12/29 06:58:40;;;;;;;149.63;19.80;;;7.50;99.90;;;;;;4994358;28;20409;-68
2021/12/29 07:01:06;;;;;;;148.48;17.33;;;7.50;99.90;;;;;;4996084;28;20060;-68
2021/12/29 07:03:32;;;;;;;166.23;20.02;;;7.50;99.90;;;;;;4994073;28;20088;-68
2021/12/29 07:05:59;;;;;;;139.75;16.98;;;7.50;99.90;;;;;;4990164;28;20524;-68
2021/12/29 07:08:25;;;;;;;136.68;16.88;;;7.60;99.90;;;;;;5010686;28;20038;-68
2021/12/29 07:10:50;;;;;;;162.38;18.45;;;7.60;99.90;;;;;;5009801;28;20513;-68
2021/12/29 07:13:16;;;;;;;108.40;14.65;;;7.60;99.90;;;;;;4994123;28;20049;-68
2021/12/29 07:15:42;;;;;;;139.40;16.33;;;7.60;99.90;;;;;;4994136;28;20137;-68
2021/12/29 07:18:08;;;;;;;145.15;16.45;;;7.60;99.90;;;;;;4991879;28;20076;-68
2021/12/29 07:20:33;;;;;;;134.65;16.15;;;7.60;99.90;;;;;;4991239;28;20124;-68
2021/12/29 07:22:59;;;;;;;157.10;17.05;;;7.60;99.90;;;;;;5013665;28;20049;-68
2021/12/29 07:25:24;;;;;;;156.98;15.88;;;7.60;99.90;;;;;;5011124;28;20044;-69
2021/12/29 07:27:51;;;;;;;139.13;15.93;;;7.60;99.90;;;;;;5016297;28;20096;-68
2021/12/29 07:30:17;;;;;;;169.95;18.33;;;7.60;99.90;;;;;;5008199;28;20107;-68
2021/12/29 07:32:43;;;;;;;125.30;14.18;;;7.60;99.90;;;;;;5023059;28;20045;-68
2021/12/29 07:35:09;;;;;;;174.43;16.63;;;7.60;99.90;;;;;;5007796;28;20054;-69
2021/12/29 07:37:35;;;;;;;156.20;17.45;;;7.60;99.90;;;;;;5011477;28;20038;-68
2021/12/29 07:40:06;;;;;;;116.65;16.15;;;7.60;99.90;;;;;;5004964;28;20503;-70
2021/12/29 07:42:33;;;;;;;162.75;16.88;;;7.60;99.90;;;;;;5011138;28;20076;-68
2021/12/29 07:44:58;;;;;;;168.15;18.60;;;7.60;99.90;;;;;;5013214;28;20072;-68
2021/12/29 07:47:24;;;;;;;175.40;18.35;;;7.60;99.90;;;;;;5009125;28;20038;-68
2021/12/29 07:49:49;;;;;;;146.35;16.58;;;7.60;99.90;;;;;;5008564;28;20046;-68
2021/12/29 07:52:15;;;;;;;150.77;17.85;;;7.60;99.90;;;;;;5010126;28;20457;-68
2021/12/29 07:54:41;;;;;;;175.70;18.08;;;7.60;99.90;;;;;;5010802;28;20057;-68
2021/12/29 07:57:06;;;;;;;170.40;18.40;;;7.60;99.90;;;;;;5007392;28;20050;-68
2021/12/29 07:59:32;;;;;;;158.68;18.67;;;7.60;99.90;;;;;;5012279;28;20061;-68
2021/12/29 08:01:58;;;;;;;107.65;16.02;;;7.60;99.90;;;;;;5007791;28;20046;-68
2021/12/29 08:04:24;;;;;;;81.15;14.35;;;7.60;99.90;;;;;;5024266;28;20658;-69
2021/12/29 08:06:52;;;;;;;96.43;16.40;;;7.60;99.90;;;;;;5013154;28;20284;-69
2021/12/29 08:09:17;;;;;;;55.28;12.38;;;7.60;99.90;;;;;;5004170;28;20076;-68
2021/12/29 08:11:43;;;;;;;59.85;12.63;;;7.60;99.90;;;;;;5012751;28;20034;-68
2021/12/29 08:14:09;;;;;;;45.97;10.98;;;7.60;99.90;;;;;;5007501;28;20041;-68
2021/12/29 08:16:35;;;;;;;55.03;12.70;;;7.60;99.90;;;;;;5009552;28;20042;-68
2021/12/29 08:19:00;;;;;;;59.33;12.82;;;7.60;99.90;;;;;;5007887;28;20080;-68
2021/12/29 08:21:26;;;;;;;54.20;12.23;;;7.60;99.90;;;;;;5009841;28;20104;-68
2021/12/29 08:23:52;;;;;;;50.33;12.10;;;7.60;99.90;;;;;;5015598;28;20095;-67
2021/12/29 08:26:20;;;;;;;67.20;13.52;;;7.60;99.90;;;;;;5011519;28;20105;-68
2021/12/29 08:28:46;;;;;;;52.65;12.50;;;7.50;99.90;;;;;;5012957;28;20084;-68
2021/12/29 08:31:12;;;;;;;55.72;12.88;;;7.50;99.90;;;;;;5010588;28;20037;-68
2021/12/29 08:33:38;;;;;;;62.10;12.70;;;7.50;99.90;;;;;;5010573;28;20076;-68
2021/12/29 08:36:06;;;;;;;48.20;11.68;;;7.50;99.90;;;;;;5006200;28;20400;-68
2021/12/29 08:38:33;;;;;;;44.28;10.80;;;7.50;99.90;;;;;;5018643;28;20095;-68
2021/12/29 08:40:58;;;;;;;44.47;11.95;;;7.50;99.90;;;;;;5005557;28;20045;-67
2021/12/29 08:43:24;;;;;;;37.88;10.85;;;7.50;99.90;;;;;;4999097;28;20707;-68
2021/12/29 08:45:50;;;;;;;40.85;11.18;;;7.50;99.90;;;;;;4999202;28;20042;-68
2021/12/29 08:48:19;;;;;;;43.38;11.13;;;7.50;99.90;;;;;;5000300;28;20057;-68
2021/12/29 08:50:45;;;;;;;39.55;13.20;;;7.50;99.90;;;;;;5004221;28;20056;-68
2021/12/29 08:53:11;;;;;;;32.45;12.18;;;7.50;99.90;;;;;;4999552;28;20042;-67
2021/12/29 08:55:44;;;;;;;28.63;9.57;;;7.50;99.90;;;;;;5002200;28;20721;-68
2021/12/29 08:58:09;;;;;;;39.97;10.57;;;7.50;99.90;;;;;;4999851;28;20076;-68
2021/12/29 09:00:38;;;;;;;33.97;10.52;;;7.50;99.90;;;;;;4999864;28;20128;-68
2021/12/29 09:03:04;;;;;;;36.13;10.18;;;7.50;99.90;;;;;;4998826;28;20123;-68
2021/12/29 09:05:29;;;;;;;35.30;8.85;;;7.50;99.90;;;;;;4998809;28;20065;-68
2021/12/29 09:07:55;;;;;;;35.53;9.60;;;7.50;99.90;;;;;;5002587;28;20037;-68
2021/12/29 09:10:21;;;;;;;26.25;9.95;;;7.50;99.90;;;;;;5000524;28;20041;-69
2021/12/29 09:12:49;;;;;;;41.40;9.50;;;7.50;99.90;;;;;;5003957;28;20038;-68
2021/12/29 09:15:22;;;;;;;42.08;11.88;;;7.50;99.90;;;;;;4989544;28;20516;-68
2021/12/29 09:17:48;;;;;;;32.83;10.98;;;7.50;99.90;;;;;;4986934;28;20046;-68
2021/12/29 09:20:24;;;;;;;33.75;10.75;;;7.50;99.90;;;;;;5000744;28;20155;-67
2021/12/29 09:22:51;;;;;;;38.60;12.48;;;7.50;99.90;;;;;;5003083;28;20306;-68
2021/12/29 09:25:17;;;;;;;46.40;15.27;;;7.50;99.90;;;;;;5000320;28;20057;-69
2021/12/29 09:27:47;;;;;;;39.20;12.88;;;7.50;99.90;;;;;;5004313;28;20050;-69
2021/12/29 09:30:13;;;;;;;33.17;10.52;;;7.50;99.90;;;;;;4978612;28;20147;-68
2021/12/29 09:32:39;;;;;;;31.67;9.63;;;7.50;99.90;;;;;;4997586;28;20456;-68
2021/12/29 09:35:05;;;;;;;35.28;9.65;;;7.60;99.90;;;;;;4983793;28;20058;-68
2021/12/29 09:37:31;;;;;;;33.22;9.48;;;7.60;99.90;;;;;;4990149;28;20137;-69
2021/12/29 09:39:58;;;;;;;35.85;9.07;;;7.60;99.90;;;;;;4984944;28;20923;-69
2021/12/29 09:42:23;;;;;;;28.52;9.52;;;7.60;99.90;;;;;;4986172;28;20080;-69
2021/12/29 09:44:51;;;;;;;23.33;8.50;;;7.60;99.90;;;;;;4982188;28;20054;-69
2021/12/29 09:47:18;;;;;;;22.67;8.00;;;7.60;99.90;;;;;;4976812;28;20433;-68
2021/12/29 09:49:44;;;;;;;34.70;9.18;;;7.60;99.90;;;;;;4978581;28;20268;-69
2021/12/29 09:52:10;;;;;;;28.02;9.48;;;7.60;99.90;;;;;;4984098;28;20046;-70
2021/12/29 09:54:36;;;;;;;31.70;10.48;;;7.60;99.90;;;;;;4980816;28;20061;-68
2021/12/29 09:57:03;;;;;;;33.58;10.00;;;7.60;99.90;;;;;;4988893;28;20052;-69
2021/12/29 09:59:29;;;;;;;30.75;8.55;;;7.60;99.90;;;;;;4982057;28;22413;-68
2021/12/29 10:01:55;;;;;;;29.00;8.38;;;7.60;99.90;;;;;;4982223;28;20120;-69
2021/12/29 10:04:21;;;;;;;24.80;8.05;;;7.60;99.90;;;;;;4980154;28;20050;-68
2021/12/29 10:06:47;;;;;;;27.30;8.00;;;7.60;99.90;;;;;;4984290;28;20065;-69
2021/12/29 10:09:15;;;;;;;24.25;7.90;;;7.60;99.90;;;;;;4980406;28;20047;-69
2021/12/29 10:11:42;;;;;;;34.78;7.68;;;7.60;99.90;;;;;;4979310;28;20054;-68
2021/12/29 10:14:10;;;;;;;29.92;8.13;;;7.60;99.90;;;;;;5000962;28;20127;-69
2021/12/29 10:16:37;;;;;;;27.38;9.52;;;7.60;99.90;;;;;;4983667;28;20053;-68
2021/12/29 10:19:09;;;;;;;39.63;9.60;;;7.60;99.90;;;;;;5004851;28;20058;-69
2021/12/29 10:21:41;;;;;;;34.33;10.50;;;7.60;99.90;;;;;;4987326;28;20084;-69
2021/12/29 10:24:07;;;;;;;39.25;10.18;;;7.60;99.90;;;;;;5005286;28;20056;-69
2021/12/29 10:26:36;;;;;;;30.65;9.93;;;7.60;99.90;;;;;;5009823;28;20041;-69
2021/12/29 10:29:07;;;;;;;28.98;8.63;;;7.60;99.90;;;;;;4987578;28;20347;-70
2021/12/29 10:31:40;;;;;;;35.25;8.00;;;7.60;99.90;;;;;;4986705;28;20060;-69
2021/12/29 10:34:10;;;;;;;34.15;8.77;;;7.60;99.90;;;;;;4987412;28;20060;-69
2021/12/29 10:36:39;;;;;;;38.47;9.27;;;7.60;99.90;;;;;;4985310;28;20041;-69
2021/12/29 10:39:07;;;;;;;34.78;8.70;;;7.60;99.90;;;;;;5004631;28;20072;-70
2021/12/29 10:41:47;;;;;;;39.08;10.63;;;7.60;99.90;;;;;;4987651;28;20064;-69
2021/12/29 10:44:13;;;;;;;36.83;8.20;;;7.70;99.90;;;;;;4985575;28;20045;-67
2021/12/29 10:46:40;;;;;;;44.83;8.48;;;7.70;99.90;;;;;;4992707;28;20489;-67
2021/12/29 10:49:08;;;;;;;34.45;8.40;;;7.70;99.90;;;;;;4970897;28;20065;-69
2021/12/29 10:51:37;;;;;;;48.78;10.05;;;7.70;99.90;;;;;;4990908;28;20299;-69
2021/12/29 10:54:06;;;;;;;46.67;10.15;;;7.70;99.90;;;;;;4982382;28;20422;-68
2021/12/29 10:56:32;;;;;;;34.47;9.25;;;7.70;99.90;;;;;;4986152;28;20052;-68
2021/12/29 10:58:58;;;;;;;42.33;9.30;;;7.70;99.90;;;;;;4981974;28;20315;-68
2021/12/29 11:01:24;;;;;;;42.53;10.52;;;7.80;99.90;;;;;;4986047;28;20509;-68
2021/12/29 11:03:52;;;;;;;48.08;11.93;;;7.80;99.90;;;;;;5003537;28;20076;-68
2021/12/29 11:06:21;;;;;;;31.80;8.77;;;7.80;99.90;;;;;;5004560;28;20078;-67
2021/12/29 11:08:59;;;;;;;36.80;9.68;;;7.90;99.90;;;;;;4986269;28;20041;-68
2021/12/29 11:11:38;;;;;;;35.72;8.75;;;7.90;99.90;;;;;;4986987;28;20511;-68
2021/12/29 11:14:13;;;;;;;30.27;8.55;;;7.90;99.90;;;;;;4983560;28;20237;-68
2021/12/29 11:16:41;;;;;;;28.15;8.13;;;7.90;99.90;;;;;;5002674;28;20504;-68
2021/12/29 11:19:09;;;;;;;34.22;7.72;;;7.90;99.90;;;;;;5000672;28;20550;-68
2021/12/29 11:21:40;;;;;;;32.83;7.13;;;7.90;99.90;;;;;;5001844;28;20050;-69
2021/12/29 11:24:23;;;;;;;24.90;6.60;;;7.90;99.90;;;;;;4995911;28;20037;-68
2021/12/29 11:26:52;;;;;;;28.77;7.00;;;7.90;99.90;;;;;;4987221;28;20060;-67
2021/12/29 11:29:21;;;;;;;27.13;7.05;;;7.90;99.90;;;;;;4986591;28;21234;-68
2021/12/29 11:31:49;;;;;;;27.27;6.63;;;7.90;99.90;;;;;;4988516;28;20141;-68
2021/12/29 11:34:26;;;;;;;39.08;9.82;;;7.90;99.90;;;;;;4986736;28;20121;-68
2021/12/29 11:37:06;;;;;;;25.48;6.97;;;7.90;99.90;;;;;;4985758;28;20047;-68
2021/12/29 11:39:34;;;;;;;24.45;6.32;;;7.90;99.90;;;;;;4985608;28;20045;-68
2021/12/29 11:42:00;;;;;;;24.90;6.38;;;7.90;99.90;;;;;;4985822;28;20085;-69
2021/12/29 11:44:27;;;;;;;25.75;6.43;;;7.90;99.90;;;;;;4991223;28;20125;-68
2021/12/29 11:46:53;;;;;;;20.63;6.18;;;7.90;99.90;;;;;;4988615;28;20738;-68
2021/12/29 11:49:19;;;;;;;21.50;7.10;;;7.90;99.90;;;;;;4988150;28;20659;-68
2021/12/29 11:52:09;;;;;;;25.20;6.55;;;7.90;99.90;;;;;;4988360;28;20065;-68
2021/12/29 11:55:04;;;;;;;20.58;6.13;;;7.90;99.90;;;;;;4986605;28;20046;-69
2021/12/29 11:57:36;;;;;;;20.55;5.40;;;7.90;99.90;;;;;;4971938;28;20477;-69
2021/12/29 12:00:06;;;;;;;25.13;6.10;;;7.90;99.90;;;;;;4968492;28;20073;-69
2021/12/29 12:02:32;;;;;;;22.70;7.03;;;7.90;99.90;;;;;;4986368;28;20495;-69
2021/12/29 12:05:10;;;;;;;21.63;6.07;;;7.90;99.90;;;;;;4984321;28;20104;-69
2021/12/29 12:07:36;;;;;;;21.10;5.90;;;7.90;99.90;;;;;;4983046;28;20057;-70
2021/12/29 12:10:08;;;;;;;18.83;5.38;;;7.90;99.90;;;;;;4982241;28;20034;-68
2021/12/29 12:12:37;;;;;;;23.70;5.97;;;7.80;99.90;;;;;;4986714;28;20048;-69
2021/12/29 12:15:07;;;;;;;21.60;6.32;;;7.80;99.90;;;;;;4988386;28;20046;-69
2021/12/29 12:17:33;;;;;;;18.92;6.35;;;7.80;99.90;;;;;;4986605;28;20064;-70
2021/12/29 12:20:01;;;;;;;12.40;5.22;;;7.80;99.90;;;;;;4982226;28;20118;-70
2021/12/29 12:22:29;;;;;;;15.70;5.90;;;7.80;99.90;;;;;;4990592;28;20062;-69
2021/12/29 12:24:54;;;;;;;17.60;5.85;;;7.70;99.90;;;;;;5003153;28;22078;-69
2021/12/29 12:27:36;;;;;;;21.10;5.40;;;7.80;99.90;;;;;;4996748;28;20114;-69
2021/12/29 12:30:11;;;;;;;13.13;5.50;;;7.80;99.90;;;;;;4998047;28;20445;-67
2021/12/29 12:32:45;;;;;;;19.88;5.97;;;7.70;99.90;;;;;;5000809;28;20099;-69
2021/12/29 12:35:13;;;;;;;18.02;5.88;;;7.80;99.90;;;;;;5000135;28;20041;-69
2021/12/29 12:37:45;;;;;;;18.10;6.10;;;7.80;99.90;;;;;;4999882;28;20264;-69
2021/12/29 12:40:22;;;;;;;18.13;6.00;;;7.70;99.90;;;;;;4998393;28;20061;-68
2021/12/29 12:42:57;;;;;;;16.38;6.10;;;7.70;99.90;;;;;;4995856;28;20085;-69